Prattsville, Arkansas
Current Conditions -  °F | °C
As of 11:56 AM on Monday 26 Jan 2015 (Local Time) from KADF Reporting Station
Clear Clear  
Wind Chill: 53°   Ceiling: Unl
Heat Index: 53°   Visibility: 10mi
Dew Point: 36°   Wind: 5mph
Humidity: 53%   Direction: 140°SE
Pressure: 30.15"   Gusts: NA
Location:  34.31°N, 92.55°W
Report Text: KADF 261756Z AUTO 14004KT 10SM CLR 12/02 A3015 RMK AO2 58009 T01160022 10116 21005 PRESFR SLP223
Loading
Personal Weather Stations






























Interactive Weather Map New forecast layout! Learn more

10-Day Weather Forecast

Advertisements
Track Severe Weather on mobile